Terminal Aerodrome Forecast
Issued by NWS

Home | Current Version | Previous Version | Text Only | Print | Product List | Glossary On
Versions: 1 2 3 4 5 6 7 8 9 10 11 12 13 14 15 16
160
FTUS44 KLZK 272320
TAFBPK
TAF
KBPK 272320Z 2800/2824 19009G16KT P6SM VCTS SCT035 OVC050CB
      TEMPO 2802/2806 VRB20G40KT 2SM TSRA BR OVC010CB
     FM280600 21009G16KT P6SM -RA VCTS SCT035 OVC050CB
     FM280800 27006KT P6SM VCSH BKN015 OVC035
     FM281200 30006KT P6SM BKN040 OVC060=

USA.gov is the U.S. government's official web portal to all federal, state and local government web resources and services.